Time;durP1;ratioP1;P1;durP2;ratioP2;P2;SDS_P1;SDS_P2;PMS_P1;PMS_P2;Temp;Humidity;BMP_temperature;BMP_pressure;BME280_temperature;BME280_humidity;BME280_pressure;Samples;Min_cycle;Max_cycle;Signal;HPM_P1;HPM_P2
2022/03/10 00:01:49;;;;;;;4.57;3.25;;;4.60;33.50;;;;;;5054407;28;20412;-51
2022/03/10 00:04:15;;;;;;;8.43;1.80;;;4.70;33.80;;;;;;5054896;28;20176;-51
2022/03/10 00:06:41;;;;;;;3.70;2.30;;;4.60;33.60;;;;;;5055084;28;20756;-51
2022/03/10 00:09:06;;;;;;;4.97;2.17;;;4.60;33.80;;;;;;5055035;28;20700;-51
2022/03/10 00:11:32;;;;;;;7.53;2.90;;;4.60;34.10;;;;;;5055250;28;20169;-51
2022/03/10 00:13:58;;;;;;;4.60;2.80;;;4.60;34.20;;;;;;5054434;28;20620;-51
2022/03/10 00:16:24;;;;;;;2.97;2.27;;;4.60;33.90;;;;;;5054878;28;20915;-51
2022/03/10 00:18:50;;;;;;;2.47;1.85;;;4.60;33.80;;;;;;5054554;28;20172;-51
2022/03/10 00:21:16;;;;;;;2.70;2.07;;;4.60;33.90;;;;;;5054547;28;20248;-51
2022/03/10 00:23:41;;;;;;;4.80;3.80;;;4.60;34.10;;;;;;5055033;28;20166;-51
2022/03/10 00:26:07;;;;;;;6.40;2.37;;;4.70;34.10;;;;;;5054699;28;20161;-51
2022/03/10 00:28:33;;;;;;;2.97;2.40;;;4.70;34.00;;;;;;5054848;28;20173;-51
2022/03/10 00:30:59;;;;;;;3.85;2.40;;;4.60;34.30;;;;;;5054603;28;20251;-51
2022/03/10 00:33:25;;;;;;;5.32;3.22;;;4.70;34.10;;;;;;5054242;28;20176;-51
2022/03/10 00:35:51;;;;;;;2.30;2.10;;;4.60;34.10;;;;;;5054249;28;20161;-51
2022/03/10 00:38:17;;;;;;;3.13;2.33;;;4.60;34.00;;;;;;5054488;28;20424;-51
2022/03/10 00:40:43;;;;;;;8.77;3.55;;;4.60;34.10;;;;;;5054115;28;20423;-51
2022/03/10 00:43:14;;;;;;;5.50;2.43;;;4.60;34.00;;;;;;5054337;28;20174;-51
2022/03/10 00:45:40;;;;;;;3.25;2.33;;;4.60;34.00;;;;;;5052841;28;20578;-51
2022/03/10 00:48:06;;;;;;;4.85;2.15;;;4.50;33.70;;;;;;5054301;28;20170;-51
2022/03/10 00:50:32;;;;;;;6.25;2.92;;;4.40;34.00;;;;;;5054575;28;20173;-51
2022/03/10 00:52:59;;;;;;;2.80;2.17;;;4.40;34.10;;;;;;5052703;28;20173;-50
2022/03/10 00:55:26;;;;;;;2.67;2.22;;;4.30;34.80;;;;;;5054103;28;20491;-51
2022/03/10 00:57:51;;;;;;;2.97;2.15;;;4.20;34.20;;;;;;5054189;28;20196;-51
2022/03/10 01:00:18;;;;;;;2.23;2.03;;;4.20;34.40;;;;;;5053889;28;20712;-51
2022/03/10 01:02:44;;;;;;;3.80;2.75;;;4.20;34.50;;;;;;5054012;28;20418;-51
2022/03/10 01:05:10;;;;;;;2.22;1.80;;;4.10;34.50;;;;;;5054023;28;20162;-51
2022/03/10 01:07:37;;;;;;;3.60;2.90;;;4.20;34.20;;;;;;5054295;28;20184;-51
2022/03/10 01:10:05;;;;;;;4.05;3.30;;;4.10;34.00;;;;;;5053796;28;20440;-50
2022/03/10 01:12:31;;;;;;;3.67;2.65;;;4.10;34.50;;;;;;5053867;28;20248;-51
2022/03/10 01:14:57;;;;;;;3.78;2.53;;;4.10;34.30;;;;;;5053791;28;20193;-50
2022/03/10 01:17:23;;;;;;;8.25;2.83;;;4.10;34.40;;;;;;5053290;28;20174;-51
2022/03/10 01:19:49;;;;;;;6.43;5.83;;;4.00;34.30;;;;;;5053717;28;20180;-51
2022/03/10 01:22:16;;;;;;;5.93;3.33;;;4.00;34.50;;;;;;5054071;28;20414;-51
2022/03/10 01:24:42;;;;;;;3.35;3.05;;;4.00;34.20;;;;;;5053496;28;20180;-51
2022/03/10 01:27:09;;;;;;;2.55;2.30;;;4.00;34.50;;;;;;5053718;28;20196;-51
2022/03/10 01:29:35;;;;;;;6.97;3.03;;;4.50;34.70;;;;;;5053702;28;20177;-51
2022/03/10 01:32:01;;;;;;;4.43;3.03;;;3.90;34.30;;;;;;5053681;28;20165;-51
2022/03/10 01:34:27;;;;;;;3.17;2.67;;;3.90;34.20;;;;;;5053393;28;20451;-51
2022/03/10 01:36:52;;;;;;;3.72;2.83;;;3.90;34.70;;;;;;5053875;28;20646;-51
2022/03/10 01:39:18;;;;;;;4.40;3.13;;;3.80;34.50;;;;;;5085658;28;20178;-51
2022/03/10 01:41:45;;;;;;;3.57;3.23;;;3.80;34.50;;;;;;5053597;28;20629;-51
2022/03/10 01:44:11;;;;;;;5.63;3.65;;;3.80;35.20;;;;;;5053294;28;20563;-51
2022/03/10 01:46:37;;;;;;;2.40;1.53;;;3.70;35.60;;;;;;5053269;28;20177;-51
2022/03/10 01:49:04;;;;;;;7.13;2.53;;;3.60;35.10;;;;;;5053227;28;20418;-51
2022/03/10 01:51:31;;;;;;;3.72;2.35;;;3.60;35.10;;;;;;5053752;28;20170;-51
2022/03/10 01:53:58;;;;;;;3.58;3.28;;;4.20;35.20;;;;;;5053150;28;20542;-51
2022/03/10 01:56:24;;;;;;;5.10;3.83;;;3.60;34.70;;;;;;5053463;28;20212;-51
2022/03/10 01:58:51;;;;;;;4.10;2.83;;;3.60;34.70;;;;;;5053183;28;20588;-51
2022/03/10 02:01:18;;;;;;;2.80;2.50;;;3.50;35.20;;;;;;5053208;28;20184;-50
2022/03/10 02:03:44;;;;;;;7.50;3.45;;;3.50;35.20;;;;;;5053949;28;20583;-51
2022/03/10 02:06:10;;;;;;;2.50;2.30;;;3.50;35.00;;;;;;5053103;28;20173;-51
2022/03/10 02:11:21;;;;;;;3.90;3.40;;;3.40;35.30;;;;;;5053388;28;20204;-51
2022/03/10 02:13:47;;;;;;;3.60;2.70;;;3.30;35.40;;;;;;5052840;28;20225;-51
2022/03/10 02:19:03;;;;;;;3.60;1.65;;;3.80;35.70;;;;;;5053054;28;20434;-51
2022/03/10 02:21:29;;;;;;;2.67;2.47;;;3.30;35.40;;;;;;5052522;28;20208;-51
2022/03/10 02:23:55;;;;;;;3.53;3.22;;;3.40;35.40;;;;;;5052928;28;20165;-51
2022/03/10 02:26:20;;;;;;;2.70;2.40;;;3.40;35.10;;;;;;5054014;28;20517;-50
2022/03/10 02:28:48;;;;;;;5.57;2.03;;;4.10;35.50;;;;;;5054515;28;20423;-51
2022/03/10 02:31:14;;;;;;;3.67;3.28;;;3.30;35.30;;;;;;5056625;28;20418;-51
2022/03/10 02:33:41;;;;;;;3.85;1.60;;;3.30;35.40;;;;;;5056805;28;20247;-51
2022/03/10 02:36:07;;;;;;;3.97;2.08;;;3.30;35.20;;;;;;5056778;28;20196;-51
2022/03/10 02:38:33;;;;;;;10.63;2.90;;;3.90;35.50;;;;;;5056503;28;20170;-51
2022/03/10 02:40:59;;;;;;;3.60;1.98;;;3.20;35.50;;;;;;5056585;28;20775;-51
2022/03/10 02:43:25;;;;;;;4.30;3.90;;;3.10;35.60;;;;;;5056654;28;20176;-50
2022/03/10 02:45:51;;;;;;;3.03;1.87;;;3.10;35.60;;;;;;5056910;28;20161;-50
2022/03/10 02:48:18;;;;;;;6.28;5.50;;;3.10;35.50;;;;;;5056592;28;20681;-51
2022/03/10 02:50:45;;;;;;;3.53;2.13;;;3.10;35.10;;;;;;5056189;28;20250;-51
2022/03/10 02:53:12;;;;;;;4.70;2.28;;;3.20;35.40;;;;;;5056350;28;20633;-51
2022/03/10 02:55:41;;;;;;;3.10;2.85;;;3.20;35.40;;;;;;5056386;28;20201;-50
2022/03/10 02:58:07;;;;;;;3.63;2.47;;;3.20;35.30;;;;;;5056410;28;20176;-51
2022/03/10 03:00:32;;;;;;;3.63;2.07;;;3.10;35.80;;;;;;5056730;28;20207;-51
2022/03/10 03:02:58;;;;;;;2.47;1.57;;;3.10;35.50;;;;;;5056289;28;20709;-51
2022/03/10 03:05:24;;;;;;;3.67;3.30;;;3.20;35.30;;;;;;5055994;28;20404;-51
2022/03/10 03:07:49;;;;;;;4.83;1.57;;;3.10;35.40;;;;;;5088153;28;20248;-52
2022/03/10 03:10:15;;;;;;;2.83;2.50;;;3.20;35.30;;;;;;5056128;28;20173;-51
2022/03/10 03:12:45;;;;;;;5.00;3.37;;;3.20;35.40;;;;;;5055836;28;20256;-51
2022/03/10 03:15:10;;;;;;;4.63;3.28;;;3.10;35.40;;;;;;5056257;28;20450;-51
2022/03/10 03:17:36;;;;;;;5.17;3.60;;;3.10;35.20;;;;;;5056296;28;20169;-51
2022/03/10 03:20:04;;;;;;;4.20;2.07;;;3.10;35.30;;;;;;5055691;28;20510;-51
2022/03/10 03:22:30;;;;;;;4.30;3.90;;;3.10;35.30;;;;;;5056219;28;20168;-51
2022/03/10 03:24:57;;;;;;;5.93;3.33;;;3.10;36.10;;;;;;5056197;28;20169;-51
2022/03/10 03:27:23;;;;;;;3.42;3.13;;;3.10;36.10;;;;;;5055891;28;20170;-51
2022/03/10 03:29:48;;;;;;;6.85;3.78;;;3.10;35.70;;;;;;5055840;28;20173;-51
2022/03/10 03:32:14;;;;;;;4.40;4.00;;;3.10;35.70;;;;;;5055693;28;20181;-51
2022/03/10 03:34:40;;;;;;;4.37;2.10;;;3.10;35.70;;;;;;5055636;28;20650;-50
2022/03/10 03:37:06;;;;;;;2.87;1.83;;;3.10;35.50;;;;;;5055647;28;20405;-51
2022/03/10 03:39:31;;;;;;;6.13;3.40;;;3.00;35.60;;;;;;5055044;28;20177;-51
2022/03/10 03:41:57;;;;;;;5.00;2.20;;;3.00;35.70;;;;;;5055337;28;20168;-51
2022/03/10 03:44:23;;;;;;;2.53;1.90;;;3.00;35.60;;;;;;5055552;28;20407;-51
2022/03/10 03:46:49;;;;;;;11.17;4.97;;;2.90;35.70;;;;;;5055479;28;20489;-50
2022/03/10 03:49:15;;;;;;;3.73;2.60;;;2.80;36.30;;;;;;5055406;28;20654;-51
2022/03/10 03:51:40;;;;;;;3.20;2.20;;;2.70;36.10;;;;;;5055363;28;20418;-50
2022/03/10 03:54:07;;;;;;;4.43;3.53;;;2.80;36.10;;;;;;5055009;28;20283;-51
2022/03/10 03:56:37;;;;;;;2.92;2.05;;;2.70;36.10;;;;;;5054965;28;20184;-50
2022/03/10 03:59:03;;;;;;;5.38;3.45;;;2.70;35.90;;;;;;5055281;28;20181;-51
2022/03/10 04:01:29;;;;;;;2.97;2.65;;;2.70;36.00;;;;;;5055162;28;20195;-51
2022/03/10 04:03:55;;;;;;;3.27;3.03;;;2.60;36.00;;;;;;5055194;28;20173;-51
2022/03/10 04:06:21;;;;;;;6.05;3.30;;;2.60;36.30;;;;;;5055121;28;20495;-51
2022/03/10 04:08:47;;;;;;;3.90;2.55;;;2.50;36.40;;;;;;5054965;28;20216;-51
2022/03/10 04:11:13;;;;;;;6.37;4.93;;;2.50;36.40;;;;;;5055009;28;20184;-51
2022/03/10 04:13:39;;;;;;;3.07;2.10;;;2.50;36.30;;;;;;5086774;28;20249;-51
2022/03/10 04:16:06;;;;;;;3.30;3.00;;;2.40;36.10;;;;;;5054808;28;20423;-51
2022/03/10 04:18:32;;;;;;;4.63;2.40;;;2.50;36.00;;;;;;5055159;28;20211;-50
2022/03/10 04:20:59;;;;;;;3.00;2.72;;;2.50;36.00;;;;;;5054993;28;20253;-51
2022/03/10 04:23:26;;;;;;;2.92;2.15;;;2.40;35.90;;;;;;5054510;28;20200;-51
2022/03/10 04:25:55;;;;;;;4.70;2.65;;;2.40;35.70;;;;;;5054719;28;20220;-51
2022/03/10 04:28:22;;;;;;;4.45;2.72;;;2.40;35.90;;;;;;5054359;28;20172;-51
2022/03/10 04:30:48;;;;;;;3.38;3.00;;;2.40;35.60;;;;;;5054944;28;20183;-51
2022/03/10 04:33:14;;;;;;;10.45;4.32;;;2.40;35.90;;;;;;5054845;28;20181;-51
2022/03/10 04:35:40;;;;;;;4.75;3.35;;;2.30;36.30;;;;;;5054162;28;20247;-50
2022/03/10 04:38:07;;;;;;;3.58;2.20;;;2.30;36.20;;;;;;5052942;28;20261;-51
2022/03/10 04:40:32;;;;;;;3.50;2.72;;;2.30;36.00;;;;;;5054452;28;20272;-51
2022/03/10 04:42:59;;;;;;;5.40;3.13;;;2.30;36.10;;;;;;5054126;28;20252;-50
2022/03/10 04:45:24;;;;;;;5.97;3.60;;;2.30;36.20;;;;;;5054363;28;20495;-51
2022/03/10 04:47:50;;;;;;;3.30;2.50;;;2.30;36.30;;;;;;5054022;28;20251;-51
2022/03/10 04:50:17;;;;;;;5.73;2.60;;;2.30;36.30;;;;;;5053756;28;20813;-51
2022/03/10 04:52:43;;;;;;;2.90;2.60;;;2.30;36.20;;;;;;5053565;28;20177;-51
2022/03/10 04:55:10;;;;;;;4.57;4.07;;;2.30;36.20;;;;;;5054108;28;20306;-50
2022/03/10 04:57:37;;;;;;;5.82;3.58;;;2.40;35.90;;;;;;5054099;28;20165;-50
2022/03/10 05:00:10;;;;;;;4.22;2.00;;;2.30;36.20;;;;;;5053818;28;20212;-51
2022/03/10 05:02:40;;;;;;;4.45;3.15;;;2.30;36.40;;;;;;5052531;28;20161;-51
2022/03/10 05:05:07;;;;;;;2.53;1.60;;;2.30;36.20;;;;;;5054017;28;20259;-50
2022/03/10 05:07:34;;;;;;;4.57;2.88;;;2.30;36.30;;;;;;5053971;28;20177;-51
2022/03/10 05:09:59;;;;;;;3.83;2.03;;;2.30;36.10;;;;;;5053885;28;20181;-50
2022/03/10 05:12:25;;;;;;;4.50;2.90;;;2.30;36.30;;;;;;5053802;28;20270;-51
2022/03/10 05:14:51;;;;;;;3.38;1.92;;;3.20;36.60;;;;;;5053574;28;20450;-51
2022/03/10 05:17:17;;;;;;;5.37;2.43;;;2.20;36.20;;;;;;5053748;28;20525;-50
2022/03/10 05:19:43;;;;;;;3.80;3.13;;;2.20;36.30;;;;;;5053747;28;20468;-51
2022/03/10 05:22:09;;;;;;;2.07;1.50;;;2.20;36.20;;;;;;5053581;28;20549;-51
2022/03/10 05:24:34;;;;;;;5.20;3.40;;;2.20;36.20;;;;;;5053471;28;20161;-51
2022/03/10 05:27:01;;;;;;;3.93;3.63;;;2.10;36.30;;;;;;5053903;28;20736;-51
2022/03/10 05:29:26;;;;;;;6.97;3.40;;;2.10;36.80;;;;;;5053277;28;20414;-50
2022/03/10 05:31:52;;;;;;;6.83;4.03;;;2.00;36.50;;;;;;5053212;28;20169;-50
2022/03/10 05:34:18;;;;;;;8.87;5.33;;;2.00;37.00;;;;;;5053471;28;20453;-50
2022/03/10 05:36:44;;;;;;;5.78;5.15;;;2.00;37.20;;;;;;5053247;28;20413;-50
2022/03/10 05:39:10;;;;;;;6.43;3.50;;;2.10;37.00;;;;;;5053463;28;20221;-51
2022/03/10 05:41:36;;;;;;;7.43;3.57;;;2.10;36.70;;;;;;5085375;28;20458;-51
2022/03/10 05:44:02;;;;;;;3.47;2.00;;;2.10;36.70;;;;;;5053689;28;20174;-50
2022/03/10 05:46:28;;;;;;;4.88;3.38;;;2.10;36.50;;;;;;5051791;28;20418;-50
2022/03/10 05:48:54;;;;;;;3.70;2.97;;;2.20;36.50;;;;;;5053287;28;20218;-50
2022/03/10 05:51:20;;;;;;;3.75;3.40;;;2.20;36.50;;;;;;5053563;28;20168;-51
2022/03/10 05:53:47;;;;;;;6.53;3.70;;;2.20;36.30;;;;;;5053331;28;20204;-51
2022/03/10 05:56:13;;;;;;;4.80;2.38;;;2.30;36.30;;;;;;5053593;28;20415;-51
2022/03/10 05:58:38;;;;;;;4.53;3.00;;;2.30;36.20;;;;;;5053310;28;20227;-51
2022/03/10 06:01:04;;;;;;;4.97;3.47;;;2.30;36.30;;;;;;5053382;28;20168;-51
2022/03/10 06:03:30;;;;;;;6.37;3.63;;;2.30;36.30;;;;;;5055552;28;20185;-51
2022/03/10 06:05:55;;;;;;;8.37;4.13;;;2.30;36.40;;;;;;5057556;28;20176;-51
2022/03/10 06:08:21;;;;;;;2.80;2.33;;;2.30;36.70;;;;;;5057403;28;20171;-51
2022/03/10 06:10:47;;;;;;;14.87;4.93;;;2.30;37.10;;;;;;5089145;28;20648;-50
2022/03/10 06:13:12;;;;;;;11.93;4.60;;;2.40;37.20;;;;;;5056748;28;20590;-51
2022/03/10 06:15:38;;;;;;;5.73;3.63;;;2.40;37.00;;;;;;5088957;28;20193;-51
2022/03/10 06:18:04;;;;;;;3.93;3.20;;;2.50;36.90;;;;;;5056826;28;20172;-51
2022/03/10 06:20:30;;;;;;;5.35;3.15;;;2.60;36.80;;;;;;5056792;28;20728;-51
2022/03/10 06:22:57;;;;;;;5.78;5.28;;;2.70;36.80;;;;;;5056930;28;20267;-51
2022/03/10 06:25:22;;;;;;;7.38;3.88;;;2.90;36.70;;;;;;5056920;28;20225;-51
2022/03/10 06:27:48;;;;;;;7.10;3.40;;;3.10;36.60;;;;;;5057118;28;20168;-51
2022/03/10 06:30:14;;;;;;;5.20;4.70;;;3.30;36.40;;;;;;5056525;28;20502;-50
2022/03/10 06:32:40;;;;;;;9.43;4.60;;;3.50;36.40;;;;;;5056771;28;20180;-51
2022/03/10 06:35:06;;;;;;;5.77;3.80;;;3.60;36.20;;;;;;5056380;28;20580;-51
2022/03/10 06:37:32;;;;;;;12.35;5.28;;;3.70;36.20;;;;;;5056360;28;20418;-51
2022/03/10 06:39:58;;;;;;;5.55;4.20;;;3.80;36.20;;;;;;5056915;28;20170;-51
2022/03/10 06:42:24;;;;;;;4.00;3.50;;;3.80;36.20;;;;;;5056433;28;20669;-50
2022/03/10 06:44:49;;;;;;;13.30;5.17;;;3.90;36.10;;;;;;5057029;28;20176;-51
2022/03/10 06:47:15;;;;;;;8.80;3.97;;;4.00;36.10;;;;;;5088505;28;20165;-51
2022/03/10 06:49:41;;;;;;;6.13;3.87;;;4.00;36.10;;;;;;5054856;28;20515;-50
2022/03/10 06:52:11;;;;;;;4.15;3.00;;;4.10;36.20;;;;;;5056324;28;20403;-51
2022/03/10 06:54:38;;;;;;;3.67;3.30;;;4.20;36.10;;;;;;5056014;28;20200;-51
2022/03/10 06:57:05;;;;;;;4.00;2.50;;;4.30;36.40;;;;;;5054826;28;20165;-51
2022/03/10 06:59:31;;;;;;;7.88;3.30;;;4.40;36.30;;;;;;5056243;28;20169;-51
2022/03/10 07:01:57;;;;;;;4.53;3.93;;;4.50;36.50;;;;;;5056460;28;20161;-51
2022/03/10 07:04:22;;;;;;;5.10;2.50;;;4.60;36.40;;;;;;5056175;28;20173;-51
2022/03/10 07:06:48;;;;;;;6.17;3.97;;;4.80;36.30;;;;;;5056157;28;20179;-51
2022/03/10 07:09:14;;;;;;;6.50;1.63;;;4.90;36.20;;;;;;5056122;28;20212;-51
2022/03/10 07:11:39;;;;;;;9.23;5.00;;;5.00;36.40;;;;;;5055316;28;20644;-51
2022/03/10 07:14:05;;;;;;;2.87;2.47;;;5.10;36.40;;;;;;5054575;28;20677;-51
2022/03/10 07:16:31;;;;;;;8.47;3.53;;;5.30;36.30;;;;;;5055650;28;20177;-51
2022/03/10 07:18:56;;;;;;;5.37;3.40;;;5.40;36.70;;;;;;5055948;28;20256;-51
2022/03/10 07:21:22;;;;;;;5.20;4.60;;;5.50;36.50;;;;;;5055920;28;20483;-51
2022/03/10 07:23:50;;;;;;;6.43;4.30;;;5.60;36.80;;;;;;5056142;28;20166;-51
2022/03/10 07:26:16;;;;;;;4.45;3.92;;;5.80;36.30;;;;;;5055500;28;20768;-51
2022/03/10 07:28:42;;;;;;;3.25;2.95;;;5.90;36.30;;;;;;5054547;28;20177;-51
2022/03/10 07:31:08;;;;;;;7.88;3.58;;;6.10;36.40;;;;;;5055920;28;20165;-51
2022/03/10 07:33:34;;;;;;;8.63;5.50;;;6.20;36.10;;;;;;5055302;28;20196;-51
2022/03/10 07:36:00;;;;;;;6.10;3.33;;;6.40;36.30;;;;;;5055635;28;20653;-51
2022/03/10 07:38:26;;;;;;;5.50;3.20;;;6.50;36.00;;;;;;5055869;28;20768;-51
2022/03/10 07:40:52;;;;;;;5.40;4.00;;;6.60;35.80;;;;;;5055474;28;20868;-51
2022/03/10 07:43:17;;;;;;;7.10;4.50;;;6.70;35.80;;;;;;5055217;28;20411;-51
2022/03/10 07:45:44;;;;;;;5.80;3.50;;;6.90;35.70;;;;;;5055347;28;20523;-51
2022/03/10 07:48:10;;;;;;;4.38;3.25;;;7.10;35.90;;;;;;5055662;28;20412;-50
2022/03/10 07:50:36;;;;;;;5.40;3.90;;;7.20;35.20;;;;;;5055309;28;20177;-50
2022/03/10 07:53:03;;;;;;;5.53;3.60;;;7.30;35.10;;;;;;5055394;28;20504;-50
2022/03/10 07:55:28;;;;;;;5.20;4.00;;;7.40;35.10;;;;;;5055134;28;20459;-50
2022/03/10 07:57:54;;;;;;;6.00;4.03;;;7.50;35.00;;;;;;5055059;28;20173;-50
2022/03/10 08:00:20;;;;;;;9.13;5.43;;;7.70;34.80;;;;;;5055056;28;20423;-50
2022/03/10 08:02:46;;;;;;;4.83;4.37;;;7.80;34.30;;;;;;5054883;28;20181;-51
2022/03/10 08:05:12;;;;;;;9.73;4.47;;;7.80;34.00;;;;;;5054862;28;20618;-50
2022/03/10 08:07:37;;;;;;;5.93;4.90;;;7.90;34.30;;;;;;5055348;28;20179;-50
2022/03/10 08:10:05;;;;;;;12.53;4.73;;;8.00;34.40;;;;;;5055013;28;20165;-50
2022/03/10 08:12:32;;;;;;;5.95;4.13;;;8.10;33.70;;;;;;5054648;28;20289;-51
2022/03/10 08:14:58;;;;;;;6.38;3.47;;;8.20;33.50;;;;;;5054450;28;20201;-50
2022/03/10 08:17:28;;;;;;;5.13;3.30;;;8.30;33.20;;;;;;5054596;28;20162;-51
2022/03/10 08:19:55;;;;;;;7.68;4.30;;;8.50;33.70;;;;;;5054802;28;20224;-50
2022/03/10 08:22:21;;;;;;;5.40;3.55;;;8.80;33.60;;;;;;5054699;28;20220;-50
2022/03/10 08:24:47;;;;;;;9.18;4.45;;;9.00;33.30;;;;;;5086613;28;20170;-50
2022/03/10 08:27:15;;;;;;;9.48;4.50;;;9.30;33.30;;;;;;5054286;28;20168;-50
2022/03/10 08:29:41;;;;;;;7.15;4.47;;;9.50;32.50;;;;;;5054937;28;20176;-50
2022/03/10 08:32:07;;;;;;;7.03;4.90;;;9.60;32.20;;;;;;5054271;28;20168;-50
2022/03/10 08:34:33;;;;;;;8.50;4.40;;;9.80;32.00;;;;;;5054915;28;20243;-51
2022/03/10 08:36:59;;;;;;;6.80;4.60;;;9.90;31.90;;;;;;5054517;28;20169;-51
2022/03/10 08:39:25;;;;;;;8.60;4.30;;;10.10;31.80;;;;;;5054430;28;20788;-50
2022/03/10 08:41:51;;;;;;;7.17;5.30;;;10.20;30.90;;;;;;5054109;28;20469;-50
2022/03/10 08:44:19;;;;;;;7.38;5.43;;;10.30;31.90;;;;;;5054627;28;20190;-51
2022/03/10 08:46:45;;;;;;;6.18;4.43;;;10.60;31.90;;;;;;5054025;28;20641;-51
2022/03/10 08:49:10;;;;;;;6.23;4.77;;;10.70;29.70;;;;;;5086310;28;20254;-51
2022/03/10 08:51:37;;;;;;;5.23;4.03;;;10.70;30.30;;;;;;5054496;28;20729;-50
2022/03/10 08:54:03;;;;;;;7.93;5.47;;;10.90;31.20;;;;;;5054105;28;20182;-51
2022/03/10 08:56:28;;;;;;;8.40;5.43;;;11.10;31.20;;;;;;5054167;28;20166;-51
2022/03/10 08:58:54;;;;;;;5.53;4.00;;;11.30;30.30;;;;;;5086051;28;20223;-51
2022/03/10 09:01:20;;;;;;;8.80;4.97;;;11.60;29.80;;;;;;5054322;28;20169;-51
2022/03/10 09:03:45;;;;;;;8.00;5.03;;;11.80;29.20;;;;;;5054242;28;20618;-50
2022/03/10 09:06:13;;;;;;;12.13;6.53;;;11.90;29.40;;;;;;5053986;28;20169;-50
2022/03/10 09:08:40;;;;;;;5.93;3.83;;;12.10;30.30;;;;;;5054183;28;20180;-51
2022/03/10 09:11:07;;;;;;;6.97;5.05;;;12.30;28.00;;;;;;5053712;28;20311;-50
2022/03/10 09:13:33;;;;;;;8.50;4.97;;;12.50;28.60;;;;;;5053301;28;20581;-50
2022/03/10 09:15:59;;;;;;;6.45;4.47;;;12.60;28.80;;;;;;5053480;28;20629;-50
2022/03/10 09:18:24;;;;;;;9.65;5.13;;;12.80;29.10;;;;;;5053827;28;20197;-51
2022/03/10 09:20:50;;;;;;;6.50;4.70;;;13.00;30.00;;;;;;5053801;28;20246;-50
2022/03/10 09:23:16;;;;;;;6.23;5.00;;;13.30;27.70;;;;;;5053965;28;20197;-50
2022/03/10 09:25:41;;;;;;;6.17;5.23;;;13.40;27.60;;;;;;5053494;28;20192;-51
2022/03/10 09:28:07;;;;;;;8.97;5.27;;;13.60;28.30;;;;;;5053430;28;20165;-51
2022/03/10 09:30:33;;;;;;;5.70;4.37;;;13.70;26.80;;;;;;5068948;28;20173;-51
2022/03/10 09:33:01;;;;;;;9.80;5.00;;;13.80;26.60;;;;;;5053670;28;20404;-51
2022/03/10 09:35:27;;;;;;;6.70;3.95;;;13.90;26.80;;;;;;5053493;28;20443;-51
2022/03/10 09:37:52;;;;;;;8.53;5.30;;;14.00;27.10;;;;;;5053053;28;20223;-50
2022/03/10 09:40:19;;;;;;;8.67;4.57;;;14.20;27.60;;;;;;5053473;28;20511;-50
2022/03/10 09:42:47;;;;;;;8.40;4.15;;;14.40;27.90;;;;;;5052272;28;20474;-50
2022/03/10 09:45:14;;;;;;;8.15;3.95;;;14.70;27.50;;;;;;5053512;28;20166;-50
2022/03/10 09:47:42;;;;;;;9.15;5.20;;;14.90;25.30;;;;;;5053506;28;20628;-50
2022/03/10 09:50:13;;;;;;;7.40;4.15;;;15.00;23.90;;;;;;5053401;28;20215;-50
2022/03/10 09:52:41;;;;;;;7.03;3.88;;;15.10;24.30;;;;;;5053199;28;20566;-51
2022/03/10 09:55:08;;;;;;;7.25;3.92;;;15.30;24.10;;;;;;5053311;28;20221;-51
2022/03/10 09:57:37;;;;;;;8.70;5.10;;;15.50;23.50;;;;;;5053679;28;20180;-50
2022/03/10 10:00:05;;;;;;;7.25;3.72;;;15.60;22.20;;;;;;5053394;28;20648;-51
2022/03/10 10:02:31;;;;;;;4.60;3.13;;;15.70;22.00;;;;;;5053369;28;20526;-50
2022/03/10 10:04:57;;;;;;;6.47;2.80;;;15.80;20.20;;;;;;5051761;28;20166;-51
2022/03/10 10:07:29;;;;;;;6.65;2.75;;;15.90;21.00;;;;;;5051801;28;20465;-50
2022/03/10 10:09:57;;;;;;;6.18;4.03;;;15.90;20.40;;;;;;5053345;28;20568;-51
2022/03/10 10:12:28;;;;;;;7.80;3.83;;;15.90;20.80;;;;;;5052373;28;20225;-51
2022/03/10 10:14:55;;;;;;;4.63;3.47;;;16.00;22.90;;;;;;5052145;28;20296;-50
2022/03/10 10:17:40;;;;;;;5.43;3.13;;;16.20;21.90;;;;;;5051693;28;20668;-50
2022/03/10 10:20:06;;;;;;;3.20;2.50;;;16.50;22.70;;;;;;5053255;28;20617;-50
2022/03/10 10:22:32;;;;;;;6.05;2.90;;;16.70;21.40;;;;;;5053198;28;20532;-50
2022/03/10 10:25:00;;;;;;;5.40;2.77;;;16.80;19.90;;;;;;5052860;28;20169;-51
2022/03/10 10:27:35;;;;;;;4.55;3.08;;;16.90;20.40;;;;;;5053419;28;20200;-50
2022/03/10 10:30:06;;;;;;;7.65;3.90;;;17.00;19.90;;;;;;5053131;28;20153;-50
2022/03/10 10:32:34;;;;;;;4.95;2.92;;;17.20;21.70;;;;;;5053433;28;20161;-50
2022/03/10 10:35:12;;;;;;;7.15;3.45;;;17.30;19.10;;;;;;5053004;28;20200;-50
2022/03/10 10:37:42;;;;;;;6.35;2.45;;;17.30;19.70;;;;;;5053343;28;20162;-51
2022/03/10 10:40:18;;;;;;;5.18;3.15;;;17.40;19.30;;;;;;5052671;28;20169;-50
2022/03/10 10:42:44;;;;;;;5.53;2.63;;;17.60;20.00;;;;;;5052912;28;20218;-51
2022/03/10 10:45:38;;;;;;;5.40;2.83;;;17.80;20.00;;;;;;5052972;28;20169;-51
2022/03/10 10:48:08;;;;;;;3.63;1.88;;;17.90;18.20;;;;;;5052699;28;20158;-51
2022/03/10 10:50:44;;;;;;;3.92;2.22;;;17.90;19.00;;;;;;5055366;28;20169;-50
2022/03/10 10:53:32;;;;;;;4.97;3.30;;;17.80;17.30;;;;;;5056487;28;20544;-51
2022/03/10 10:55:58;;;;;;;3.45;2.53;;;17.60;18.30;;;;;;5056162;28;20161;-50
2022/03/10 10:58:25;;;;;;;6.03;2.53;;;17.60;18.90;;;;;;5056951;28;20173;-51
2022/03/10 11:00:51;;;;;;;5.00;2.97;;;17.60;18.10;;;;;;5056374;28;20178;-51
2022/03/10 11:03:20;;;;;;;9.73;3.97;;;17.50;18.30;;;;;;5056022;28;20177;-51
2022/03/10 11:05:48;;;;;;;5.18;3.20;;;17.60;18.80;;;;;;5056009;28;20161;-51
2022/03/10 11:08:20;;;;;;;3.88;2.15;;;17.80;18.60;;;;;;5055972;28;20184;-51
2022/03/10 11:10:47;;;;;;;5.35;3.90;;;17.80;18.80;;;;;;5056138;28;20201;-51
2022/03/10 11:13:13;;;;;;;7.97;3.28;;;18.00;19.80;;;;;;5054361;28;20698;-51
2022/03/10 11:15:40;;;;;;;4.10;2.70;;;18.30;18.90;;;;;;5055937;28;20189;-51
2022/03/10 11:18:10;;;;;;;5.22;3.38;;;18.30;18.50;;;;;;5055950;28;20177;-51
2022/03/10 11:20:38;;;;;;;4.90;3.47;;;18.30;18.50;;;;;;5055703;28;20170;-51
2022/03/10 11:23:16;;;;;;;4.05;2.50;;;18.30;18.50;;;;;;5055816;28;20199;-51
2022/03/10 11:26:07;;;;;;;4.45;2.65;;;18.30;19.10;;;;;;5055777;28;20189;-51
2022/03/10 11:28:38;;;;;;;5.25;3.20;;;18.40;18.80;;;;;;5056141;28;20169;-50
2022/03/10 11:31:09;;;;;;;3.95;2.90;;;18.60;18.50;;;;;;5055870;28;20162;-50
2022/03/10 11:33:37;;;;;;;8.07;3.53;;;18.70;18.00;;;;;;5055366;28;20608;-51
2022/03/10 11:36:38;;;;;;;8.70;3.22;;;18.60;18.10;;;;;;5055466;28;20639;-50
2022/03/10 11:39:10;;;;;;;5.10;3.50;;;18.70;18.30;;;;;;5053485;28;20211;-50
2022/03/10 11:41:48;;;;;;;5.90;3.65;;;18.70;18.60;;;;;;5053653;28;20182;-50
2022/03/10 11:44:19;;;;;;;10.35;7.45;;;19.00;19.70;;;;;;5053708;28;20211;-50
2022/03/10 11:46:57;;;;;;;4.53;2.83;;;19.20;18.70;;;;;;5053181;28;20209;-50
2022/03/10 11:49:26;;;;;;;8.27;3.42;;;19.30;18.10;;;;;;5053388;28;20173;-50
2022/03/10 11:51:55;;;;;;;7.28;3.70;;;19.30;19.30;;;;;;5053127;28;20212;-50
2022/03/10 11:54:30;;;;;;;4.20;2.78;;;19.40;17.70;;;;;;5053708;28;20533;-50
2022/03/10 11:57:03;;;;;;;5.18;3.63;;;19.60;18.30;;;;;;5052989;28;20254;-50
2022/03/10 11:59:32;;;;;;;6.68;3.80;;;19.60;17.40;;;;;;5052826;28;20174;-51
2022/03/10 12:01:58;;;;;;;3.45;2.70;;;19.50;17.50;;;;;;5052512;28;20165;-50
2022/03/10 12:04:57;;;;;;;7.88;3.80;;;19.30;18.00;;;;;;5036007;28;20170;-50
2022/03/10 12:07:32;;;;;;;6.20;3.13;;;19.40;19.00;;;;;;5038005;28;20177;-50
2022/03/10 12:10:11;;;;;;;5.63;3.35;;;19.60;18.90;;;;;;5052776;28;20165;-50
2022/03/10 12:12:46;;;;;;;4.75;2.53;;;19.80;18.60;;;;;;5053612;28;20221;-51
2022/03/10 12:15:26;;;;;;;6.13;3.35;;;20.00;17.70;;;;;;5054865;28;20197;-50
2022/03/10 12:17:54;;;;;;;7.05;3.65;;;20.10;17.50;;;;;;5054591;28;20177;-50
2022/03/10 12:20:31;;;;;;;5.13;3.10;;;19.90;18.00;;;;;;5055126;28;20177;-51
2022/03/10 12:23:03;;;;;;;6.07;4.82;;;20.00;19.10;;;;;;5054591;28;20177;-51
2022/03/10 12:25:35;;;;;;;5.78;3.58;;;20.20;17.70;;;;;;5054483;28;20180;-51
2022/03/10 12:28:02;;;;;;;7.85;4.32;;;20.30;18.40;;;;;;5054523;28;20186;-51
2022/03/10 12:30:28;;;;;;;7.13;5.15;;;20.40;19.10;;;;;;5053053;28;20572;-51
2022/03/10 12:32:56;;;;;;;9.68;4.43;;;20.50;18.50;;;;;;5054264;28;20181;-51
2022/03/10 12:35:31;;;;;;;8.65;4.88;;;20.40;17.80;;;;;;5054474;28;20193;-51
2022/03/10 12:37:57;;;;;;;6.97;3.80;;;20.40;18.80;;;;;;5054569;28;20158;-50
2022/03/10 12:40:25;;;;;;;6.03;3.55;;;20.40;17.40;;;;;;5054408;28;20169;-51
2022/03/10 12:42:57;;;;;;;5.85;4.55;;;20.30;18.10;;;;;;5052888;28;20264;-51
2022/03/10 12:45:23;;;;;;;7.88;4.65;;;20.40;18.80;;;;;;5054409;28;20618;-51
2022/03/10 12:47:58;;;;;;;6.83;3.77;;;20.50;18.30;;;;;;5054509;28;20193;-51
2022/03/10 12:50:24;;;;;;;6.55;4.28;;;20.50;18.80;;;;;;5054562;28;20181;-50
2022/03/10 12:52:50;;;;;;;8.25;4.13;;;20.70;18.80;;;;;;5054048;28;20173;-50
2022/03/10 12:55:25;;;;;;;6.30;4.30;;;21.10;17.90;;;;;;5053868;28;20227;-51
2022/03/10 12:57:58;;;;;;;5.20;3.78;;;21.00;18.60;;;;;;5054157;28;20153;-51
2022/03/10 13:00:27;;;;;;;5.55;3.65;;;21.30;19.00;;;;;;5054196;28;20598;-51